sensor_id;sensor_type;location;lat;lon;timestamp;temperature;humidity
21167;DHT22;10741;52.272;9.580;2023-07-22T00:00:46;14.40;99.90
21167;DHT22;10741;52.272;9.580;2023-07-22T00:03:11;14.40;99.90
21167;DHT22;10741;52.272;9.580;2023-07-22T00:05:39;14.40;99.90
21167;DHT22;10741;52.272;9.580;2023-07-22T00:08:05;14.40;99.90
21167;DHT22;10741;52.272;9.580;2023-07-22T00:10:30;14.50;99.90
21167;DHT22;10741;52.272;9.580;2023-07-22T00:12:56;14.50;99.90
21167;DHT22;10741;52.272;9.580;2023-07-22T00:15:22;14.50;99.90
21167;DHT22;10741;52.272;9.580;2023-07-22T00:17:49;14.50;99.90
21167;DHT22;10741;52.272;9.580;2023-07-22T00:20:16;14.50;99.90
21167;DHT22;10741;52.272;9.580;2023-07-22T00:22:42;14.50;99.90
21167;DHT22;10741;52.272;9.580;2023-07-22T00:25:10;14.40;99.90
21167;DHT22;10741;52.272;9.580;2023-07-22T00:27:40;14.40;99.90
21167;DHT22;10741;52.272;9.580;2023-07-22T00:30:07;14.30;99.90
21167;DHT22;10741;52.272;9.580;2023-07-22T00:32:33;14.30;99.90
21167;DHT22;10741;52.272;9.580;2023-07-22T00:34:59;14.20;99.90
21167;DHT22;10741;52.272;9.580;2023-07-22T00:37:25;14.20;99.90
21167;DHT22;10741;52.272;9.580;2023-07-22T00:39:51;14.20;99.90
21167;DHT22;10741;52.272;9.580;2023-07-22T00:42:17;14.10;99.90
21167;DHT22;10741;52.272;9.580;2023-07-22T00:44:43;14.10;99.90
21167;DHT22;10741;52.272;9.580;2023-07-22T00:47:09;14.10;99.90
21167;DHT22;10741;52.272;9.580;2023-07-22T00:49:35;14.10;99.90
21167;DHT22;10741;52.272;9.580;2023-07-22T00:52:02;14.10;99.90
21167;DHT22;10741;52.272;9.580;2023-07-22T00:54:29;14.00;99.90
21167;DHT22;10741;52.272;9.580;2023-07-22T00:56:56;14.00;99.90
21167;DHT22;10741;52.272;9.580;2023-07-22T00:59:22;14.00;99.90
21167;DHT22;10741;52.272;9.580;2023-07-22T01:01:48;14.00;99.90
21167;DHT22;10741;52.272;9.580;2023-07-22T01:04:15;14.00;99.90
21167;DHT22;10741;52.272;9.580;2023-07-22T01:06:43;14.00;99.90
21167;DHT22;10741;52.272;9.580;2023-07-22T01:09:09;14.00;99.90
21167;DHT22;10741;52.272;9.580;2023-07-22T01:11:35;14.00;99.90
21167;DHT22;10741;52.272;9.580;2023-07-22T01:14:01;13.90;99.90
21167;DHT22;10741;52.272;9.580;2023-07-22T01:16:28;14.00;99.90
21167;DHT22;10741;52.272;9.580;2023-07-22T01:18:54;13.90;99.90
21167;DHT22;10741;52.272;9.580;2023-07-22T01:21:22;13.90;99.90
21167;DHT22;10741;52.272;9.580;2023-07-22T01:23:49;13.90;99.90
21167;DHT22;10741;52.272;9.580;2023-07-22T01:26:15;13.90;99.90
21167;DHT22;10741;52.272;9.580;2023-07-22T01:28:41;13.90;99.90
21167;DHT22;10741;52.272;9.580;2023-07-22T01:31:07;13.90;99.90
21167;DHT22;10741;52.272;9.580;2023-07-22T01:33:33;13.90;99.90
21167;DHT22;10741;52.272;9.580;2023-07-22T01:35:59;13.90;99.90
21167;DHT22;10741;52.272;9.580;2023-07-22T01:38:25;13.80;99.90
21167;DHT22;10741;52.272;9.580;2023-07-22T01:40:51;13.80;99.90
21167;DHT22;10741;52.272;9.580;2023-07-22T01:43:17;13.70;99.90
21167;DHT22;10741;52.272;9.580;2023-07-22T01:45:42;13.70;99.90
21167;DHT22;10741;52.272;9.580;2023-07-22T01:48:08;13.70;99.90
21167;DHT22;10741;52.272;9.580;2023-07-22T01:50:34;13.70;99.90
21167;DHT22;10741;52.272;9.580;2023-07-22T01:53:00;13.60;99.90
21167;DHT22;10741;52.272;9.580;2023-07-22T01:55:25;13.60;99.90
21167;DHT22;10741;52.272;9.580;2023-07-22T01:57:51;13.60;99.90
21167;DHT22;10741;52.272;9.580;2023-07-22T02:00:17;13.60;99.90
21167;DHT22;10741;52.272;9.580;2023-07-22T02:02:43;13.50;99.90
21167;DHT22;10741;52.272;9.580;2023-07-22T02:05:09;13.50;99.90
21167;DHT22;10741;52.272;9.580;2023-07-22T02:07:38;13.50;99.90
21167;DHT22;10741;52.272;9.580;2023-07-22T02:10:04;13.40;99.90
21167;DHT22;10741;52.272;9.580;2023-07-22T02:12:31;13.40;99.90
21167;DHT22;10741;52.272;9.580;2023-07-22T02:14:56;13.40;99.90
21167;DHT22;10741;52.272;9.580;2023-07-22T02:17:22;13.40;99.90
21167;DHT22;10741;52.272;9.580;2023-07-22T02:19:49;13.40;99.90
21167;DHT22;10741;52.272;9.580;2023-07-22T02:22:15;13.30;99.90
21167;DHT22;10741;52.272;9.580;2023-07-22T02:24:41;13.30;99.90
21167;DHT22;10741;52.272;9.580;2023-07-22T02:27:07;13.30;99.90
21167;DHT22;10741;52.272;9.580;2023-07-22T02:29:34;13.30;99.90
21167;DHT22;10741;52.272;9.580;2023-07-22T02:32:00;13.30;99.90
21167;DHT22;10741;52.272;9.580;2023-07-22T02:34:26;13.20;99.90
21167;DHT22;10741;52.272;9.580;2023-07-22T02:36:52;13.20;99.90
21167;DHT22;10741;52.272;9.580;2023-07-22T02:39:18;13.20;99.90
21167;DHT22;10741;52.272;9.580;2023-07-22T02:41:44;13.20;99.90
21167;DHT22;10741;52.272;9.580;2023-07-22T02:44:09;13.20;99.90
21167;DHT22;10741;52.272;9.580;2023-07-22T02:46:35;13.10;99.90
21167;DHT22;10741;52.272;9.580;2023-07-22T02:49:01;13.20;99.90
21167;DHT22;10741;52.272;9.580;2023-07-22T02:51:26;13.20;99.90
21167;DHT22;10741;52.272;9.580;2023-07-22T02:53:52;13.20;99.90
21167;DHT22;10741;52.272;9.580;2023-07-22T02:56:18;13.20;99.90
21167;DHT22;10741;52.272;9.580;2023-07-22T02:58:44;13.20;99.90
21167;DHT22;10741;52.272;9.580;2023-07-22T03:01:09;13.20;99.90
21167;DHT22;10741;52.272;9.580;2023-07-22T03:03:36;13.20;99.90
21167;DHT22;10741;52.272;9.580;2023-07-22T03:06:03;13.20;99.90
21167;DHT22;10741;52.272;9.580;2023-07-22T03:08:33;13.20;99.90
21167;DHT22;10741;52.272;9.580;2023-07-22T03:10:59;13.20;99.90
21167;DHT22;10741;52.272;9.580;2023-07-22T03:13:24;13.20;99.90
21167;DHT22;10741;52.272;9.580;2023-07-22T03:15:55;13.20;99.90
21167;DHT22;10741;52.272;9.580;2023-07-22T03:18:21;13.20;99.90
21167;DHT22;10741;52.272;9.580;2023-07-22T03:20:46;13.20;99.90
21167;DHT22;10741;52.272;9.580;2023-07-22T03:23:12;13.20;99.90
21167;DHT22;10741;52.272;9.580;2023-07-22T03:25:38;13.20;99.90
21167;DHT22;10741;52.272;9.580;2023-07-22T03:28:05;13.10;99.90
21167;DHT22;10741;52.272;9.580;2023-07-22T03:30:32;13.10;99.90
21167;DHT22;10741;52.272;9.580;2023-07-22T03:32:58;13.10;99.90
21167;DHT22;10741;52.272;9.580;2023-07-22T03:35:26;13.10;99.90
21167;DHT22;10741;52.272;9.580;2023-07-22T03:37:51;13.10;99.90
21167;DHT22;10741;52.272;9.580;2023-07-22T03:40:17;13.00;99.90
21167;DHT22;10741;52.272;9.580;2023-07-22T03:42:49;13.00;99.90
21167;DHT22;10741;52.272;9.580;2023-07-22T03:45:16;13.00;99.90
21167;DHT22;10741;52.272;9.580;2023-07-22T03:47:44;13.10;99.90
21167;DHT22;10741;52.272;9.580;2023-07-22T03:50:10;13.10;99.90
21167;DHT22;10741;52.272;9.580;2023-07-22T03:52:36;13.10;99.90
21167;DHT22;10741;52.272;9.580;2023-07-22T03:55:02;13.10;99.90
21167;DHT22;10741;52.272;9.580;2023-07-22T03:57:29;13.10;99.90
21167;DHT22;10741;52.272;9.580;2023-07-22T03:59:55;13.10;99.90
21167;DHT22;10741;52.272;9.580;2023-07-22T04:02:22;13.10;99.90
21167;DHT22;10741;52.272;9.580;2023-07-22T04:04:47;13.10;99.90
21167;DHT22;10741;52.272;9.580;2023-07-22T04:07:13;13.10;99.90
21167;DHT22;10741;52.272;9.580;2023-07-22T04:09:40;13.10;99.90
21167;DHT22;10741;52.272;9.580;2023-07-22T04:12:06;13.20;99.90
21167;DHT22;10741;52.272;9.580;2023-07-22T04:14:32;13.20;99.90
21167;DHT22;10741;52.272;9.580;2023-07-22T04:16:58;13.20;99.90
21167;DHT22;10741;52.272;9.580;2023-07-22T04:19:24;13.30;99.90
21167;DHT22;10741;52.272;9.580;2023-07-22T04:21:49;13.30;99.90
21167;DHT22;10741;52.272;9.580;2023-07-22T04:24:15;13.40;99.90
21167;DHT22;10741;52.272;9.580;2023-07-22T04:26:44;13.40;99.90
21167;DHT22;10741;52.272;9.580;2023-07-22T04:29:10;13.50;99.90
21167;DHT22;10741;52.272;9.580;2023-07-22T04:31:37;13.60;99.90
21167;DHT22;10741;52.272;9.580;2023-07-22T04:34:03;13.60;99.90
21167;DHT22;10741;52.272;9.580;2023-07-22T04:36:29;13.70;99.90
21167;DHT22;10741;52.272;9.580;2023-07-22T04:38:54;13.70;99.90
21167;DHT22;10741;52.272;9.580;2023-07-22T04:41:20;13.70;99.90
21167;DHT22;10741;52.272;9.580;2023-07-22T04:43:46;13.70;99.90
21167;DHT22;10741;52.272;9.580;2023-07-22T04:46:13;13.80;99.90
21167;DHT22;10741;52.272;9.580;2023-07-22T04:48:38;13.80;99.90
21167;DHT22;10741;52.272;9.580;2023-07-22T04:51:04;13.80;99.90
21167;DHT22;10741;52.272;9.580;2023-07-22T04:53:30;13.90;99.90
21167;DHT22;10741;52.272;9.580;2023-07-22T04:55:56;13.90;99.90
21167;DHT22;10741;52.272;9.580;2023-07-22T04:58:22;13.90;99.90
21167;DHT22;10741;52.272;9.580;2023-07-22T05:00:47;14.00;99.90
21167;DHT22;10741;52.272;9.580;2023-07-22T05:03:17;14.00;99.90
21167;DHT22;10741;52.272;9.580;2023-07-22T05:05:43;14.00;99.90
21167;DHT22;10741;52.272;9.580;2023-07-22T05:08:09;14.10;99.90
21167;DHT22;10741;52.272;9.580;2023-07-22T05:10:36;14.10;99.90
21167;DHT22;10741;52.272;9.580;2023-07-22T05:13:02;14.10;99.90
21167;DHT22;10741;52.272;9.580;2023-07-22T05:15:27;14.10;99.90
21167;DHT22;10741;52.272;9.580;2023-07-22T05:17:53;14.10;99.90
21167;DHT22;10741;52.272;9.580;2023-07-22T05:20:19;14.20;99.90
21167;DHT22;10741;52.272;9.580;2023-07-22T05:22:44;14.20;99.90
21167;DHT22;10741;52.272;9.580;2023-07-22T05:25:10;14.30;99.90
21167;DHT22;10741;52.272;9.580;2023-07-22T05:27:36;14.40;99.90
21167;DHT22;10741;52.272;9.580;2023-07-22T05:30:02;14.50;99.90
21167;DHT22;10741;52.272;9.580;2023-07-22T05:32:29;14.60;99.90
21167;DHT22;10741;52.272;9.580;2023-07-22T05:34:58;14.60;99.90
21167;DHT22;10741;52.272;9.580;2023-07-22T05:37:24;14.70;99.90
21167;DHT22;10741;52.272;9.580;2023-07-22T05:39:50;14.80;99.90
21167;DHT22;10741;52.272;9.580;2023-07-22T05:42:17;14.80;99.90
21167;DHT22;10741;52.272;9.580;2023-07-22T05:44:43;14.90;99.90
21167;DHT22;10741;52.272;9.580;2023-07-22T05:47:08;15.10;99.90
21167;DHT22;10741;52.272;9.580;2023-07-22T05:49:34;15.20;99.90
21167;DHT22;10741;52.272;9.580;2023-07-22T05:52:00;15.20;99.90
21167;DHT22;10741;52.272;9.580;2023-07-22T05:54:26;15.30;99.90
21167;DHT22;10741;52.272;9.580;2023-07-22T05:56:51;15.30;99.90
21167;DHT22;10741;52.272;9.580;2023-07-22T05:59:17;15.60;99.90
21167;DHT22;10741;52.272;9.580;2023-07-22T06:01:43;15.60;99.90
21167;DHT22;10741;52.272;9.580;2023-07-22T06:04:09;15.70;99.90
21167;DHT22;10741;52.272;9.580;2023-07-22T06:06:35;15.90;99.90
21167;DHT22;10741;52.272;9.580;2023-07-22T06:09:01;15.80;99.90
21167;DHT22;10741;52.272;9.580;2023-07-22T06:11:27;15.80;99.90
21167;DHT22;10741;52.272;9.580;2023-07-22T06:13:54;15.80;99.90
21167;DHT22;10741;52.272;9.580;2023-07-22T06:16:19;15.70;99.90
21167;DHT22;10741;52.272;9.580;2023-07-22T06:18:45;15.80;99.90
21167;DHT22;10741;52.272;9.580;2023-07-22T06:21:11;15.70;99.90
21167;DHT22;10741;52.272;9.580;2023-07-22T06:23:37;15.90;99.90
21167;DHT22;10741;52.272;9.580;2023-07-22T06:26:02;16.00;99.90
21167;DHT22;10741;52.272;9.580;2023-07-22T06:28:28;16.10;99.90
21167;DHT22;10741;52.272;9.580;2023-07-22T06:30:54;16.20;99.90
21167;DHT22;10741;52.272;9.580;2023-07-22T06:33:20;16.20;99.90
21167;DHT22;10741;52.272;9.580;2023-07-22T06:35:46;16.30;99.90
21167;DHT22;10741;52.272;9.580;2023-07-22T06:38:11;16.30;99.90
21167;DHT22;10741;52.272;9.580;2023-07-22T06:40:37;16.50;99.90
21167;DHT22;10741;52.272;9.580;2023-07-22T06:43:03;16.60;99.90
21167;DHT22;10741;52.272;9.580;2023-07-22T06:45:28;16.80;99.90
21167;DHT22;10741;52.272;9.580;2023-07-22T06:47:54;16.80;99.90
21167;DHT22;10741;52.272;9.580;2023-07-22T06:50:20;16.90;99.90
21167;DHT22;10741;52.272;9.580;2023-07-22T06:52:45;17.00;99.90
21167;DHT22;10741;52.272;9.580;2023-07-22T06:55:11;17.10;99.90
21167;DHT22;10741;52.272;9.580;2023-07-22T06:57:37;17.10;99.90
21167;DHT22;10741;52.272;9.580;2023-07-22T07:00:04;17.20;99.90
21167;DHT22;10741;52.272;9.580;2023-07-22T07:02:30;17.20;99.90
21167;DHT22;10741;52.272;9.580;2023-07-22T07:04:56;17.20;99.90
21167;DHT22;10741;52.272;9.580;2023-07-22T07:07:22;17.30;99.90
21167;DHT22;10741;52.272;9.580;2023-07-22T07:09:48;17.30;99.90
21167;DHT22;10741;52.272;9.580;2023-07-22T07:12:14;17.20;99.90
21167;DHT22;10741;52.272;9.580;2023-07-22T07:14:40;17.20;99.90
21167;DHT22;10741;52.272;9.580;2023-07-22T07:17:05;17.50;99.90
21167;DHT22;10741;52.272;9.580;2023-07-22T07:19:31;17.40;99.90
21167;DHT22;10741;52.272;9.580;2023-07-22T07:21:57;17.50;99.90
21167;DHT22;10741;52.272;9.580;2023-07-22T07:24:23;17.60;99.90
21167;DHT22;10741;52.272;9.580;2023-07-22T07:26:48;17.60;99.90
21167;DHT22;10741;52.272;9.580;2023-07-22T07:29:14;17.60;99.90
21167;DHT22;10741;52.272;9.580;2023-07-22T07:31:40;17.70;99.90
21167;DHT22;10741;52.272;9.580;2023-07-22T07:34:06;17.80;99.90
21167;DHT22;10741;52.272;9.580;2023-07-22T07:36:34;17.70;99.90
21167;DHT22;10741;52.272;9.580;2023-07-22T07:39:00;17.30;99.90
21167;DHT22;10741;52.272;9.580;2023-07-22T07:41:26;17.20;99.90
21167;DHT22;10741;52.272;9.580;2023-07-22T07:43:51;17.10;99.90
21167;DHT22;10741;52.272;9.580;2023-07-22T07:46:31;17.20;99.90
21167;DHT22;10741;52.272;9.580;2023-07-22T07:49:00;17.30;99.90
21167;DHT22;10741;52.272;9.580;2023-07-22T07:51:27;17.50;99.90
21167;DHT22;10741;52.272;9.580;2023-07-22T07:53:54;17.90;99.90
21167;DHT22;10741;52.272;9.580;2023-07-22T07:56:20;17.90;99.90
21167;DHT22;10741;52.272;9.580;2023-07-22T07:58:47;17.60;99.90
21167;DHT22;10741;52.272;9.580;2023-07-22T08:01:21;17.70;99.90
21167;DHT22;10741;52.272;9.580;2023-07-22T08:03:50;18.10;99.90
21167;DHT22;10741;52.272;9.580;2023-07-22T08:06:16;18.10;99.90
21167;DHT22;10741;52.272;9.580;2023-07-22T08:08:42;18.10;99.90
21167;DHT22;10741;52.272;9.580;2023-07-22T08:11:12;18.40;99.90
21167;DHT22;10741;52.272;9.580;2023-07-22T08:13:42;18.60;99.90
21167;DHT22;10741;52.272;9.580;2023-07-22T08:16:11;18.80;99.90
21167;DHT22;10741;52.272;9.580;2023-07-22T08:18:37;19.00;99.90
21167;DHT22;10741;52.272;9.580;2023-07-22T08:21:05;19.10;99.90
21167;DHT22;10741;52.272;9.580;2023-07-22T08:23:33;18.80;99.90
21167;DHT22;10741;52.272;9.580;2023-07-22T08:25:59;18.70;99.90
21167;DHT22;10741;52.272;9.580;2023-07-22T08:28:25;18.60;99.90
21167;DHT22;10741;52.272;9.580;2023-07-22T08:30:54;18.80;99.90
21167;DHT22;10741;52.272;9.580;2023-07-22T08:33:24;19.00;99.90
21167;DHT22;10741;52.272;9.580;2023-07-22T08:35:53;19.50;99.90
21167;DHT22;10741;52.272;9.580;2023-07-22T08:38:19;19.50;99.90
21167;DHT22;10741;52.272;9.580;2023-07-22T08:40:49;19.70;99.90
21167;DHT22;10741;52.272;9.580;2023-07-22T08:43:15;20.30;99.90
21167;DHT22;10741;52.272;9.580;2023-07-22T08:45:45;20.30;99.90
21167;DHT22;10741;52.272;9.580;2023-07-22T08:48:15;20.10;99.90
21167;DHT22;10741;52.272;9.580;2023-07-22T08:50:53;19.90;99.90
21167;DHT22;10741;52.272;9.580;2023-07-22T08:53:20;19.90;99.90
21167;DHT22;10741;52.272;9.580;2023-07-22T08:55:46;19.70;99.90
21167;DHT22;10741;52.272;9.580;2023-07-22T08:58:13;19.50;99.90
21167;DHT22;10741;52.272;9.580;2023-07-22T09:00:40;19.30;99.90
21167;DHT22;10741;52.272;9.580;2023-07-22T09:03:06;19.20;99.90
21167;DHT22;10741;52.272;9.580;2023-07-22T09:05:35;19.00;99.90
21167;DHT22;10741;52.272;9.580;2023-07-22T09:08:03;18.90;99.90
21167;DHT22;10741;52.272;9.580;2023-07-22T09:10:30;19.00;99.90
21167;DHT22;10741;52.272;9.580;2023-07-22T09:12:56;19.10;99.90
21167;DHT22;10741;52.272;9.580;2023-07-22T09:15:22;19.20;99.90
21167;DHT22;10741;52.272;9.580;2023-07-22T09:17:49;19.20;99.90
21167;DHT22;10741;52.272;9.580;2023-07-22T09:20:15;19.30;99.90
21167;DHT22;10741;52.272;9.580;2023-07-22T09:22:45;19.30;99.90
21167;DHT22;10741;52.272;9.580;2023-07-22T09:25:23;19.10;99.90
21167;DHT22;10741;52.272;9.580;2023-07-22T09:27:50;19.00;99.90
21167;DHT22;10741;52.272;9.580;2023-07-22T09:30:23;18.90;99.90
21167;DHT22;10741;52.272;9.580;2023-07-22T09:32:49;18.90;99.90
21167;DHT22;10741;52.272;9.580;2023-07-22T09:35:16;18.90;99.90
21167;DHT22;10741;52.272;9.580;2023-07-22T09:37:42;19.00;99.90
21167;DHT22;10741;52.272;9.580;2023-07-22T09:42:52;19.40;99.90
21167;DHT22;10741;52.272;9.580;2023-07-22T09:45:25;19.40;99.90
21167;DHT22;10741;52.272;9.580;2023-07-22T09:47:52;19.80;99.90
21167;DHT22;10741;52.272;9.580;2023-07-22T09:50:23;19.90;99.90
21167;DHT22;10741;52.272;9.580;2023-07-22T09:52:56;19.90;99.90
21167;DHT22;10741;52.272;9.580;2023-07-22T09:55:27;19.90;99.90
21167;DHT22;10741;52.272;9.580;2023-07-22T09:57:56;19.60;99.90
21167;DHT22;10741;52.272;9.580;2023-07-22T10:00:24;19.50;99.90
21167;DHT22;10741;52.272;9.580;2023-07-22T10:02:51;19.80;99.90
21167;DHT22;10741;52.272;9.580;2023-07-22T10:05:19;19.70;99.90
21167;DHT22;10741;52.272;9.580;2023-07-22T10:07:51;19.70;99.90
21167;DHT22;10741;52.272;9.580;2023-07-22T10:10:19;19.80;99.90
21167;DHT22;10741;52.272;9.580;2023-07-22T10:12:46;20.10;99.90
21167;DHT22;10741;52.272;9.580;2023-07-22T10:15:13;20.20;99.90
21167;DHT22;10741;52.272;9.580;2023-07-22T10:17:41;20.30;99.90
21167;DHT22;10741;52.272;9.580;2023-07-22T10:20:09;20.30;99.90
21167;DHT22;10741;52.272;9.580;2023-07-22T10:22:43;20.20;99.90
21167;DHT22;10741;52.272;9.580;2023-07-22T10:25:11;20.30;99.90
21167;DHT22;10741;52.272;9.580;2023-07-22T10:27:38;20.20;99.90
21167;DHT22;10741;52.272;9.580;2023-07-22T10:30:06;20.10;99.90
21167;DHT22;10741;52.272;9.580;2023-07-22T10:32:43;20.20;99.90
21167;DHT22;10741;52.272;9.580;2023-07-22T10:35:22;20.10;99.90
21167;DHT22;10741;52.272;9.580;2023-07-22T10:37:53;20.00;99.90
21167;DHT22;10741;52.272;9.580;2023-07-22T10:50:48;19.70;99.90
21167;DHT22;10741;52.272;9.580;2023-07-22T11:12:01;20.10;99.90
21167;DHT22;10741;52.272;9.580;2023-07-22T11:14:37;19.90;99.90
21167;DHT22;10741;52.272;9.580;2023-07-22T11:17:04;19.80;99.90
21167;DHT22;10741;52.272;9.580;2023-07-22T11:19:31;19.70;99.90
21167;DHT22;10741;52.272;9.580;2023-07-22T11:21:57;19.90;99.90
21167;DHT22;10741;52.272;9.580;2023-07-22T11:24:24;20.10;99.90
21167;DHT22;10741;52.272;9.580;2023-07-22T11:26:50;20.10;99.90
21167;DHT22;10741;52.272;9.580;2023-07-22T11:29:17;20.10;99.90
21167;DHT22;10741;52.272;9.580;2023-07-22T11:31:46;20.00;99.90
21167;DHT22;10741;52.272;9.580;2023-07-22T11:34:16;19.90;99.90
21167;DHT22;10741;52.272;9.580;2023-07-22T11:36:43;19.80;99.90
21167;DHT22;10741;52.272;9.580;2023-07-22T11:39:11;19.60;99.90
21167;DHT22;10741;52.272;9.580;2023-07-22T11:41:39;19.50;99.90
21167;DHT22;10741;52.272;9.580;2023-07-22T11:44:08;19.50;99.90
21167;DHT22;10741;52.272;9.580;2023-07-22T11:49:37;19.40;99.90
21167;DHT22;10741;52.272;9.580;2023-07-22T11:52:09;19.40;99.90
21167;DHT22;10741;52.272;9.580;2023-07-22T11:54:39;19.40;99.90
21167;DHT22;10741;52.272;9.580;2023-07-22T11:57:22;19.50;99.90
21167;DHT22;10741;52.272;9.580;2023-07-22T11:59:52;19.80;99.90
21167;DHT22;10741;52.272;9.580;2023-07-22T12:02:18;20.30;99.90
21167;DHT22;10741;52.272;9.580;2023-07-22T12:04:55;20.90;99.90
21167;DHT22;10741;52.272;9.580;2023-07-22T12:07:29;21.40;99.90
21167;DHT22;10741;52.272;9.580;2023-07-22T12:09:57;21.60;99.90
21167;DHT22;10741;52.272;9.580;2023-07-22T12:17:59;21.70;99.90
21167;DHT22;10741;52.272;9.580;2023-07-22T12:20:26;21.80;99.90
21167;DHT22;10741;52.272;9.580;2023-07-22T12:22:53;21.80;99.90
21167;DHT22;10741;52.272;9.580;2023-07-22T12:25:19;21.90;99.90
21167;DHT22;10741;52.272;9.580;2023-07-22T12:27:45;22.00;99.90
21167;DHT22;10741;52.272;9.580;2023-07-22T12:30:11;22.20;99.90
21167;DHT22;10741;52.272;9.580;2023-07-22T12:32:37;22.10;99.90
21167;DHT22;10741;52.272;9.580;2023-07-22T12:35:04;21.90;99.90
21167;DHT22;10741;52.272;9.580;2023-07-22T12:37:30;21.60;99.90
21167;DHT22;10741;52.272;9.580;2023-07-22T12:39:56;21.40;99.90
21167;DHT22;10741;52.272;9.580;2023-07-22T12:42:22;21.10;99.90
21167;DHT22;10741;52.272;9.580;2023-07-22T12:44:47;21.00;99.90
21167;DHT22;10741;52.272;9.580;2023-07-22T12:47:13;20.80;99.90
21167;DHT22;10741;52.272;9.580;2023-07-22T12:49:39;20.80;99.90
21167;DHT22;10741;52.272;9.580;2023-07-22T12:52:05;20.80;99.90
21167;DHT22;10741;52.272;9.580;2023-07-22T12:54:35;20.80;99.90
21167;DHT22;10741;52.272;9.580;2023-07-22T12:57:01;21.00;99.90
21167;DHT22;10741;52.272;9.580;2023-07-22T12:59:27;21.60;99.90
21167;DHT22;10741;52.272;9.580;2023-07-22T13:01:53;21.90;99.90
21167;DHT22;10741;52.272;9.580;2023-07-22T13:04:19;22.00;99.90
21167;DHT22;10741;52.272;9.580;2023-07-22T13:06:45;22.30;99.90
21167;DHT22;10741;52.272;9.580;2023-07-22T13:09:11;22.40;99.90
21167;DHT22;10741;52.272;9.580;2023-07-22T13:11:37;22.30;99.90
21167;DHT22;10741;52.272;9.580;2023-07-22T13:14:03;22.30;99.90
21167;DHT22;10741;52.272;9.580;2023-07-22T13:16:29;22.40;99.90
21167;DHT22;10741;52.272;9.580;2023-07-22T13:18:55;22.90;99.90
21167;DHT22;10741;52.272;9.580;2023-07-22T13:21:20;23.20;99.50
21167;DHT22;10741;52.272;9.580;2023-07-22T13:23:46;23.20;99.90
21167;DHT22;10741;52.272;9.580;2023-07-22T13:26:12;23.60;98.70
21167;DHT22;10741;52.272;9.580;2023-07-22T13:28:37;23.60;97.70
21167;DHT22;10741;52.272;9.580;2023-07-22T13:31:03;23.50;97.60
21167;DHT22;10741;52.272;9.580;2023-07-22T13:33:29;23.20;98.10
21167;DHT22;10741;52.272;9.580;2023-07-22T13:35:54;22.90;98.50
21167;DHT22;10741;52.272;9.580;2023-07-22T13:38:20;22.90;98.00
21167;DHT22;10741;52.272;9.580;2023-07-22T13:40:46;22.90;98.70
21167;DHT22;10741;52.272;9.580;2023-07-22T13:43:12;22.70;99.00
21167;DHT22;10741;52.272;9.580;2023-07-22T13:45:38;22.60;99.90
21167;DHT22;10741;52.272;9.580;2023-07-22T13:48:04;22.40;98.70
21167;DHT22;10741;52.272;9.580;2023-07-22T13:50:30;22.20;99.40
21167;DHT22;10741;52.272;9.580;2023-07-22T13:52:56;22.20;99.90
21167;DHT22;10741;52.272;9.580;2023-07-22T13:55:22;22.10;99.90
21167;DHT22;10741;52.272;9.580;2023-07-22T13:57:47;22.20;99.90
21167;DHT22;10741;52.272;9.580;2023-07-22T14:00:13;22.10;99.90
21167;DHT22;10741;52.272;9.580;2023-07-22T14:02:40;21.90;99.90
21167;DHT22;10741;52.272;9.580;2023-07-22T14:05:06;21.90;99.90
21167;DHT22;10741;52.272;9.580;2023-07-22T14:07:32;22.00;99.90
21167;DHT22;10741;52.272;9.580;2023-07-22T14:09:58;22.20;99.90
21167;DHT22;10741;52.272;9.580;2023-07-22T14:12:24;22.70;99.90
21167;DHT22;10741;52.272;9.580;2023-07-22T14:14:50;22.60;99.80
21167;DHT22;10741;52.272;9.580;2023-07-22T14:17:15;22.30;99.60
21167;DHT22;10741;52.272;9.580;2023-07-22T14:19:41;22.40;99.90
21167;DHT22;10741;52.272;9.580;2023-07-22T14:22:07;22.70;98.60
21167;DHT22;10741;52.272;9.580;2023-07-22T14:24:34;23.10;99.90
21167;DHT22;10741;52.272;9.580;2023-07-22T14:27:00;23.50;98.90
21167;DHT22;10741;52.272;9.580;2023-07-22T14:29:25;23.50;98.40
21167;DHT22;10741;52.272;9.580;2023-07-22T14:31:51;23.60;99.90
21167;DHT22;10741;52.272;9.580;2023-07-22T14:34:17;23.60;98.80
21167;DHT22;10741;52.272;9.580;2023-07-22T14:36:43;23.40;97.80
21167;DHT22;10741;52.272;9.580;2023-07-22T14:39:09;23.10;97.10
21167;DHT22;10741;52.272;9.580;2023-07-22T14:41:35;22.90;97.50
21167;DHT22;10741;52.272;9.580;2023-07-22T14:44:01;22.60;97.60
21167;DHT22;10741;52.272;9.580;2023-07-22T14:46:26;22.50;97.50
21167;DHT22;10741;52.272;9.580;2023-07-22T14:48:52;22.60;98.10
21167;DHT22;10741;52.272;9.580;2023-07-22T14:51:18;22.60;98.20
21167;DHT22;10741;52.272;9.580;2023-07-22T14:53:44;22.60;97.50
21167;DHT22;10741;52.272;9.580;2023-07-22T14:56:10;22.60;98.00
21167;DHT22;10741;52.272;9.580;2023-07-22T14:58:35;22.60;98.30
21167;DHT22;10741;52.272;9.580;2023-07-22T15:01:01;22.50;97.70
21167;DHT22;10741;52.272;9.580;2023-07-22T15:03:27;22.40;97.50
21167;DHT22;10741;52.272;9.580;2023-07-22T15:05:52;22.30;97.30
21167;DHT22;10741;52.272;9.580;2023-07-22T15:08:18;22.20;97.00
21167;DHT22;10741;52.272;9.580;2023-07-22T15:10:44;22.20;97.40
21167;DHT22;10741;52.272;9.580;2023-07-22T15:13:10;22.30;98.10
21167;DHT22;10741;52.272;9.580;2023-07-22T15:15:35;22.50;98.00
21167;DHT22;10741;52.272;9.580;2023-07-22T15:18:01;22.60;97.50
21167;DHT22;10741;52.272;9.580;2023-07-22T15:20:27;22.70;96.80
21167;DHT22;10741;52.272;9.580;2023-07-22T15:22:52;22.80;96.80
21167;DHT22;10741;52.272;9.580;2023-07-22T15:25:18;22.70;97.40
21167;DHT22;10741;52.272;9.580;2023-07-22T15:27:44;22.70;98.60
21167;DHT22;10741;52.272;9.580;2023-07-22T15:30:10;22.70;96.50
21167;DHT22;10741;52.272;9.580;2023-07-22T15:32:37;22.70;97.50
21167;DHT22;10741;52.272;9.580;2023-07-22T15:35:05;22.70;97.60
21167;DHT22;10741;52.272;9.580;2023-07-22T15:37:30;22.60;96.90
21167;DHT22;10741;52.272;9.580;2023-07-22T15:39:56;22.40;97.60
21167;DHT22;10741;52.272;9.580;2023-07-22T15:42:22;22.30;97.20
21167;DHT22;10741;52.272;9.580;2023-07-22T15:44:48;22.40;97.50
21167;DHT22;10741;52.272;9.580;2023-07-22T15:47:13;22.40;98.20
21167;DHT22;10741;52.272;9.580;2023-07-22T15:49:39;22.50;99.70
21167;DHT22;10741;52.272;9.580;2023-07-22T15:52:05;22.40;98.10
21167;DHT22;10741;52.272;9.580;2023-07-22T15:54:31;22.40;98.00
21167;DHT22;10741;52.272;9.580;2023-07-22T15:56:56;22.40;99.30
21167;DHT22;10741;52.272;9.580;2023-07-22T15:59:22;22.30;98.70
21167;DHT22;10741;52.272;9.580;2023-07-22T16:01:48;22.20;97.90
21167;DHT22;10741;52.272;9.580;2023-07-22T16:04:13;22.10;98.60
21167;DHT22;10741;52.272;9.580;2023-07-22T16:06:40;22.10;99.50